Time,TemperatureF,DewpointF,PressureIn,WindDirection,WindDirectionDegrees,WindSpeedMPH,WindSpeedGustMPH,Humidity,HourlyPrecipIn,Conditions,Clouds,dailyrainin,SolarRadiationWatts/m^2,SoftwareType,DateUTC
2013-07-31 00:00:00,60.6,58.9,30.16,WNW,288,0.0,0.0,94,0.00,,---,0.00,0.00,VWS V14.01,2013-07-31 04:00:00,
2013-07-31 00:01:00,59.7,58.3,30.16,WNW,288,0.0,0.0,95,0.00,,---,0.00,0.00,VWS V14.01,2013-07-31 04:01:00,
2013-07-31 00:02:00,59.7,58.3,30.16,WNW,288,0.0,0.0,95,0.00,,---,0.00,0.00,VWS V14.01,2013-07-31 04:02:00,
2013-07-31 00:07:00,59.7,58.3,30.16,WNW,288,0.0,0.0,95,0.00,,---,0.00,0.00,VWS V14.01,2013-07-31 04:07:00,
2013-07-31 00:12:00,59.7,58.6,30.16,WNW,288,0.0,0.0,96,0.00,,---,0.00,0.00,VWS V14.01,2013-07-31 04:12:00,
2013-07-31 00:17:00,59.6,58.2,30.16,WNW,288,0.0,0.0,95,0.00,,---,0.00,0.00,VWS V14.01,2013-07-31 04:17:00,
2013-07-31 00:22:00,59.5,58.1,30.16,WNW,288,0.0,0.0,95,0.00,,---,0.00,0.00,VWS V14.01,2013-07-31 04:22:00,
2013-07-31 00:27:00,59.4,58.0,30.16,WNW,288,0.0,0.0,95,0.00,,---,0.00,0.00,VWS V14.01,2013-07-31 04:27:00,
2013-07-31 00:30:00,60.0,58.6,30.17,WNW,288,0.0,0.0,95,0.00,,---,0.00,0.00,VWS V14.01,2013-07-31 04:30:00,
2013-07-31 00:32:00,59.3,57.9,30.16,WNW,288,0.0,0.0,95,0.00,,---,0.00,0.00,VWS V14.01,2013-07-31 04:32:00,
2013-07-31 00:37:00,59.2,58.1,30.16,WNW,288,0.0,0.0,96,0.00,,---,0.00,0.00,VWS V14.01,2013-07-31 04:37:00,
2013-07-31 00:42:00,59.2,58.1,30.16,WNW,288,0.0,0.0,96,0.00,,---,0.00,0.00,VWS V14.01,2013-07-31 04:42:00,
2013-07-31 00:47:00,59.1,57.7,30.17,WNW,288,0.0,0.0,95,0.00,,---,0.00,0.00,VWS V14.01,2013-07-31 04:47:00,
2013-07-31 00:52:00,59.0,57.9,30.16,WNW,288,0.0,0.0,96,0.00,,---,0.00,0.00,VWS V14.01,2013-07-31 04:52:00,
2013-07-31 00:57:00,58.9,57.8,30.16,WNW,288,0.0,0.0,96,0.00,,---,0.00,0.00,VWS V14.01,2013-07-31 04:57:00,
2013-07-31 01:00:00,59.7,58.3,30.16,WNW,288,0.0,0.0,95,0.00,,---,0.00,0.00,VWS V14.01,2013-07-31 05:00:00,
2013-07-31 01:02:00,58.9,57.8,30.16,WNW,288,0.0,0.0,96,0.00,,---,0.00,0.00,VWS V14.01,2013-07-31 05:02:00,
2013-07-31 01:07:00,59.0,57.9,30.16,WNW,288,0.0,0.0,96,0.00,,---,0.00,0.00,VWS V14.01,2013-07-31 05:07:00,
2013-07-31 01:12:00,59.0,57.9,30.16,WNW,288,0.0,0.0,96,0.00,,---,0.00,0.00,VWS V14.01,2013-07-31 05:12:00,
2013-07-31 01:17:00,59.0,57.9,30.16,WNW,288,0.0,0.0,96,0.00,,---,0.00,0.00,VWS V14.01,2013-07-31 05:17:00,
2013-07-31 01:22:00,58.9,57.8,30.16,WNW,288,0.0,0.0,96,0.00,,---,0.00,0.00,VWS V14.01,2013-07-31 05:22:00,
2013-07-31 01:27:00,58.8,57.7,30.16,WNW,288,0.0,0.0,96,0.00,,---,0.00,0.00,VWS V14.01,2013-07-31 05:27:00,
2013-07-31 01:30:00,59.3,57.9,30.16,WNW,288,0.0,0.0,95,0.00,,---,0.00,0.00,VWS V14.01,2013-07-31 05:30:00,
2013-07-31 01:32:00,58.7,57.6,30.16,WNW,288,0.0,0.0,96,0.00,,---,0.00,0.00,VWS V14.01,2013-07-31 05:32:00,
2013-07-31 01:37:00,58.6,57.5,30.16,WNW,288,0.0,0.0,96,0.00,,---,0.00,0.00,VWS V14.01,2013-07-31 05:37:00,
2013-07-31 01:42:00,58.6,57.5,30.16,WNW,288,0.0,0.0,96,0.00,,---,0.00,0.00,VWS V14.01,2013-07-31 05:42:00,
2013-07-31 01:47:00,58.5,57.4,30.15,WNW,288,0.0,0.0,96,0.00,,---,0.00,0.00,VWS V14.01,2013-07-31 05:47:00,
2013-07-31 01:54:00,58.4,57.3,30.15,WNW,288,0.0,0.0,96,0.00,,---,0.00,0.00,VWS V14.01,2013-07-31 05:54:00,
2013-07-31 01:59:00,58.4,57.3,30.15,WNW,288,0.0,0.0,96,0.00,,---,0.00,0.00,VWS V14.01,2013-07-31 05:59:00,
2013-07-31 02:00:00,58.9,57.8,30.16,WNW,288,0.0,0.0,96,0.00,,---,0.00,0.00,VWS V14.01,2013-07-31 06:00:00,
2013-07-31 02:04:00,58.3,57.2,30.15,WNW,288,0.0,0.0,96,0.00,,---,0.00,0.00,VWS V14.01,2013-07-31 06:04:00,
2013-07-31 02:09:00,58.3,57.2,30.16,WNW,288,0.0,0.0,96,0.00,,---,0.00,0.00,VWS V14.01,2013-07-31 06:09:00,
2013-07-31 02:14:00,58.2,57.1,30.15,WNW,288,0.0,0.0,96,0.00,,---,0.00,0.00,VWS V14.01,2013-07-31 06:14:00,
2013-07-31 02:19:00,58.2,57.1,30.16,WNW,288,0.0,0.0,96,0.00,,---,0.00,0.00,VWS V14.01,2013-07-31 06:19:00,
2013-07-31 02:24:00,58.2,57.1,30.15,WNW,288,0.0,0.0,96,0.00,,---,0.00,0.00,VWS V14.01,2013-07-31 06:24:00,
2013-07-31 02:29:00,58.0,56.9,30.16,WNW,288,0.0,0.0,96,0.00,,---,0.00,0.00,VWS V14.01,2013-07-31 06:29:00,
2013-07-31 02:30:00,58.8,57.7,30.16,WNW,288,0.0,0.0,96,0.00,,---,0.00,0.00,VWS V14.01,2013-07-31 06:30:00,
2013-07-31 02:34:00,57.9,56.8,30.15,WNW,288,0.0,0.0,96,0.00,,---,0.00,0.00,VWS V14.01,2013-07-31 06:34:00,
2013-07-31 02:39:00,57.8,56.7,30.16,WNW,288,0.0,0.0,96,0.00,,---,0.00,0.00,VWS V14.01,2013-07-31 06:39:00,
2013-07-31 02:44:00,57.7,56.6,30.16,WNW,288,0.0,0.0,96,0.00,,---,0.00,0.00,VWS V14.01,2013-07-31 06:44:00,
2013-07-31 02:49:00,57.5,56.4,30.16,WNW,288,0.0,0.0,96,0.00,,---,0.00,0.00,VWS V14.01,2013-07-31 06:49:00,
2013-07-31 02:54:00,57.4,56.3,30.16,WNW,288,0.0,0.0,96,0.00,,---,0.00,0.00,VWS V14.01,2013-07-31 06:54:00,
2013-07-31 02:59:00,57.3,56.2,30.16,WNW,288,0.0,0.0,96,0.00,,---,0.00,0.00,VWS V14.01,2013-07-31 06:59:00,
2013-07-31 03:00:00,58.4,57.3,30.15,WNW,288,0.0,0.0,96,0.00,,---,0.00,0.00,VWS V14.01,2013-07-31 07:00:00,
2013-07-31 03:04:00,57.3,56.2,30.16,WNW,288,0.0,0.0,96,0.00,,---,0.00,0.00,VWS V14.01,2013-07-31 07:04:00,
2013-07-31 03:09:00,57.2,56.1,30.16,WNW,288,0.0,0.0,96,0.00,,---,0.00,0.00,VWS V14.01,2013-07-31 07:09:00,
2013-07-31 03:14:00,57.2,56.1,30.17,WNW,288,0.0,0.0,96,0.00,,---,0.00,0.00,VWS V14.01,2013-07-31 07:14:00,
2013-07-31 03:19:00,57.2,56.1,30.16,WNW,288,0.0,0.0,96,0.00,,---,0.00,0.00,VWS V14.01,2013-07-31 07:19:00,
2013-07-31 03:24:00,57.1,56.0,30.16,WNW,288,0.0,0.0,96,0.00,,---,0.00,0.00,VWS V14.01,2013-07-31 07:24:00,
2013-07-31 03:29:00,56.9,55.8,30.16,WNW,288,0.0,0.0,96,0.00,,---,0.00,0.00,VWS V14.01,2013-07-31 07:29:00,
2013-07-31 03:30:00,58.0,56.9,30.16,WNW,288,0.0,0.0,96,0.00,,---,0.00,0.00,VWS V14.01,2013-07-31 07:30:00,
2013-07-31 03:34:00,56.8,55.7,30.16,WNW,288,0.0,0.0,96,0.00,,---,0.00,0.00,VWS V14.01,2013-07-31 07:34:00,
2013-07-31 03:39:00,56.7,55.6,30.16,WNW,288,0.0,0.0,96,0.00,,---,0.00,0.00,VWS V14.01,2013-07-31 07:39:00,
2013-07-31 03:44:00,56.6,55.5,30.16,WNW,288,0.0,0.0,96,0.00,,---,0.00,0.00,VWS V14.01,2013-07-31 07:44:00,
2013-07-31 03:49:00,56.5,55.4,30.16,WNW,288,0.0,0.0,96,0.00,,---,0.00,0.00,VWS V14.01,2013-07-31 07:49:00,
2013-07-31 03:54:00,56.4,55.3,30.16,WNW,288,0.0,0.0,96,0.00,,---,0.00,0.00,VWS V14.01,2013-07-31 07:54:00,
2013-07-31 03:59:00,56.2,55.1,30.17,WNW,288,0.0,0.0,96,0.00,,---,0.00,0.00,VWS V14.01,2013-07-31 07:59:00,
2013-07-31 04:00:00,57.3,56.2,30.16,WNW,288,0.0,0.0,96,0.00,,---,0.00,0.00,VWS V14.01,2013-07-31 08:00:00,
2013-07-31 04:04:00,56.0,54.9,30.16,WNW,288,0.0,0.0,96,0.00,,---,0.00,0.00,VWS V14.01,2013-07-31 08:04:00,
2013-07-31 04:09:00,56.0,54.9,30.16,WNW,288,0.0,0.0,96,0.00,,---,0.00,0.00,VWS V14.01,2013-07-31 08:09:00,
2013-07-31 04:14:00,55.9,54.8,30.17,WNW,288,0.0,0.0,96,0.00,,---,0.00,0.00,VWS V14.01,2013-07-31 08:14:00,
2013-07-31 04:19:00,55.8,54.7,30.17,WNW,288,0.0,0.0,96,0.00,,---,0.00,0.00,VWS V14.01,2013-07-31 08:19:00,
2013-07-31 04:24:00,55.7,54.9,30.17,WNW,288,0.0,0.0,97,0.00,,---,0.00,0.00,VWS V14.01,2013-07-31 08:24:00,
2013-07-31 04:29:00,55.6,54.8,30.17,WNW,288,0.0,0.0,97,0.00,,---,0.00,0.00,VWS V14.01,2013-07-31 08:29:00,
2013-07-31 04:30:00,56.9,55.8,30.16,WNW,288,0.0,0.0,96,0.00,,---,0.00,0.00,VWS V14.01,2013-07-31 08:30:00,
2013-07-31 04:34:00,55.5,54.4,30.17,WNW,288,0.0,0.0,96,0.00,,---,0.00,0.00,VWS V14.01,2013-07-31 08:34:00,
2013-07-31 04:39:00,55.4,54.3,30.17,WNW,288,0.0,0.0,96,0.00,,---,0.00,0.00,VWS V14.01,2013-07-31 08:39:00,
2013-07-31 04:44:00,55.3,54.2,30.17,WNW,288,0.0,0.0,96,0.00,,---,0.00,0.00,VWS V14.01,2013-07-31 08:44:00,
2013-07-31 04:49:00,55.1,54.0,30.17,WNW,288,0.0,0.0,96,0.00,,---,0.00,0.00,VWS V14.01,2013-07-31 08:49:00,
2013-07-31 04:54:00,55.0,54.2,30.17,WNW,288,0.0,0.0,97,0.00,,---,0.00,0.00,VWS V14.01,2013-07-31 08:54:00,
2013-07-31 04:59:00,54.9,54.1,30.17,WNW,288,0.0,0.0,97,0.00,,---,0.00,0.00,VWS V14.01,2013-07-31 08:59:00,
2013-07-31 05:00:00,56.2,55.1,30.17,WNW,288,0.0,0.0,96,0.00,,---,0.00,0.00,VWS V14.01,2013-07-31 09:00:00,
2013-07-31 05:04:00,54.8,53.7,30.17,WNW,288,0.0,0.0,96,0.00,,---,0.00,0.00,VWS V14.01,2013-07-31 09:04:00,
2013-07-31 05:09:00,54.7,53.6,30.17,WNW,288,0.0,0.0,96,0.00,,---,0.00,0.00,VWS V14.01,2013-07-31 09:09:00,
2013-07-31 05:14:00,54.6,53.8,30.18,WNW,288,0.0,0.0,97,0.00,,---,0.00,0.00,VWS V14.01,2013-07-31 09:14:00,
2013-07-31 05:19:00,54.5,53.7,30.18,WNW,288,0.0,0.0,97,0.00,,---,0.00,0.00,VWS V14.01,2013-07-31 09:19:00,
2013-07-31 05:24:00,54.3,53.5,30.18,WNW,288,0.0,0.0,97,0.00,,---,0.00,0.00,VWS V14.01,2013-07-31 09:24:00,
2013-07-31 05:29:00,54.2,53.1,30.18,WNW,288,0.0,0.0,96,0.00,,---,0.00,0.00,VWS V14.01,2013-07-31 09:29:00,
2013-07-31 05:30:00,55.6,54.8,30.17,WNW,288,0.0,0.0,97,0.00,,---,0.00,0.00,VWS V14.01,2013-07-31 09:30:00,
2013-07-31 05:34:00,54.0,52.9,30.18,WNW,288,0.0,0.0,96,0.00,,---,0.00,0.00,VWS V14.01,2013-07-31 09:34:00,
2013-07-31 05:39:00,53.9,53.1,30.18,WNW,288,0.0,0.0,97,0.00,,---,0.00,0.00,VWS V14.01,2013-07-31 09:39:00,
2013-07-31 05:44:00,53.7,52.9,30.18,WNW,288,0.0,0.0,97,0.00,,---,0.00,0.00,VWS V14.01,2013-07-31 09:44:00,
2013-07-31 05:49:00,53.6,52.5,30.18,WNW,288,0.0,0.0,96,0.00,,---,0.00,0.00,VWS V14.01,2013-07-31 09:49:00,
2013-07-31 05:54:00,53.5,52.7,30.18,WNW,288,0.0,0.0,97,0.00,,---,0.00,5.00,VWS V14.01,2013-07-31 09:54:00,
2013-07-31 05:59:00,53.4,52.6,30.18,WNW,288,0.0,0.0,97,0.00,,---,0.00,7.00,VWS V14.01,2013-07-31 09:59:00,
2013-07-31 06:00:00,54.9,54.1,30.17,WNW,288,0.0,0.0,97,0.00,,---,0.00,0.00,VWS V14.01,2013-07-31 10:00:00,
2013-07-31 06:04:00,53.4,52.6,30.18,WNW,288,0.0,0.0,97,0.00,,---,0.00,9.00,VWS V14.01,2013-07-31 10:04:00,
2013-07-31 06:09:00,53.4,52.6,30.19,WNW,288,0.0,0.0,97,0.00,,---,0.00,12.00,VWS V14.01,2013-07-31 10:09:00,
2013-07-31 06:14:00,53.4,52.6,30.19,WNW,288,0.0,0.0,97,0.00,,---,0.00,14.00,VWS V14.01,2013-07-31 10:14:00,
2013-07-31 06:19:00,53.3,52.5,30.19,WNW,288,0.0,0.0,97,0.00,,---,0.00,18.00,VWS V14.01,2013-07-31 10:19:00,
2013-07-31 06:24:00,53.3,52.5,30.19,WNW,288,0.0,0.0,97,0.00,,---,0.00,19.00,VWS V14.01,2013-07-31 10:24:00,
2013-07-31 06:29:00,53.3,52.5,30.19,WNW,288,0.0,0.0,97,0.00,,---,0.00,23.00,VWS V14.01,2013-07-31 10:29:00,
2013-07-31 06:30:00,54.1,53.0,30.18,WNW,288,0.0,0.0,96,0.00,,---,0.00,0.00,VWS V14.01,2013-07-31 10:30:00,
2013-07-31 06:34:00,53.4,52.6,30.19,WNW,288,0.0,0.0,97,0.00,,---,0.00,25.00,VWS V14.01,2013-07-31 10:34:00,
2013-07-31 06:39:00,53.6,52.8,30.19,WNW,288,0.0,0.0,97,0.00,,---,0.00,26.00,VWS V14.01,2013-07-31 10:39:00,
2013-07-31 06:44:00,53.8,53.0,30.20,WNW,288,0.0,0.0,97,0.00,,---,0.00,40.00,VWS V14.01,2013-07-31 10:44:00,
2013-07-31 06:49:00,54.1,53.5,30.20,WNW,288,0.0,0.0,98,0.00,,---,0.00,97.00,VWS V14.01,2013-07-31 10:49:00,
2013-07-31 06:54:00,54.7,54.2,30.20,WNW,288,0.0,0.0,98,0.00,,---,0.00,77.00,VWS V14.01,2013-07-31 10:54:00,
2013-07-31 06:59:00,55.3,54.8,30.20,WNW,288,0.0,0.0,98,0.00,,---,0.00,123.00,VWS V14.01,2013-07-31 10:59:00,
2013-07-31 07:00:00,53.4,52.6,30.18,WNW,288,0.0,0.0,97,0.00,,---,0.00,7.00,VWS V14.01,2013-07-31 11:00:00,
2013-07-31 07:04:00,56.3,55.8,30.20,WNW,288,0.0,0.0,98,0.00,,---,0.00,141.00,VWS V14.01,2013-07-31 11:04:00,
2013-07-31 07:09:00,56.8,56.2,30.20,WNW,288,0.0,0.0,98,0.00,,---,0.00,158.00,VWS V14.01,2013-07-31 11:09:00,
2013-07-31 07:14:00,56.9,56.3,30.20,WNW,288,0.0,1.0,98,0.00,,---,0.00,176.00,VWS V14.01,2013-07-31 11:14:00,
2013-07-31 07:19:00,57.1,56.3,30.20,WNW,288,0.0,1.0,97,0.00,,---,0.00,197.00,VWS V14.01,2013-07-31 11:19:00,
2013-07-31 07:24:00,57.7,56.9,30.20,WNW,288,0.0,1.0,97,0.00,,---,0.00,211.00,VWS V14.01,2013-07-31 11:24:00,
2013-07-31 07:29:00,58.5,57.7,30.20,WNW,288,0.0,1.0,97,0.00,,---,0.00,227.00,VWS V14.01,2013-07-31 11:29:00,
2013-07-31 07:30:00,53.3,52.5,30.19,WNW,288,0.0,0.0,97,0.00,,---,0.00,23.00,VWS V14.01,2013-07-31 11:30:00,
2013-07-31 07:34:00,59.2,58.1,30.20,WNW,288,0.0,0.0,96,0.00,,---,0.00,221.00,VWS V14.01,2013-07-31 11:34:00,
2013-07-31 07:39:00,59.7,58.3,30.20,WNW,288,0.0,0.0,95,0.00,,---,0.00,204.00,VWS V14.01,2013-07-31 11:39:00,
2013-07-31 07:44:00,60.2,58.5,30.20,WNW,288,0.0,0.0,94,0.00,,---,0.00,220.00,VWS V14.01,2013-07-31 11:44:00,
2013-07-31 07:49:00,60.6,58.9,30.20,WNW,288,0.0,1.0,94,0.00,,---,0.00,223.00,VWS V14.01,2013-07-31 11:49:00,
2013-07-31 07:54:00,61.0,59.0,30.20,WNW,288,0.0,1.0,93,0.00,,---,0.00,218.00,VWS V14.01,2013-07-31 11:54:00,
2013-07-31 07:59:00,61.4,58.8,30.20,WNW,288,0.0,1.0,91,0.00,,---,0.00,279.00,VWS V14.01,2013-07-31 11:59:00,
2013-07-31 08:00:00,55.5,55.0,30.20,WNW,288,0.0,0.0,98,0.00,,---,0.00,127.00,VWS V14.01,2013-07-31 12:00:00,
2013-07-31 08:04:00,62.0,59.0,30.20,WNW,288,0.0,0.0,90,0.00,,---,0.00,336.00,VWS V14.01,2013-07-31 12:04:00,
2013-07-31 08:09:00,62.7,59.7,30.20,WNW,288,0.0,0.0,90,0.00,,---,0.00,360.00,VWS V14.01,2013-07-31 12:09:00,
2013-07-31 08:14:00,63.5,60.2,30.20,WNW,288,0.0,0.0,89,0.00,,---,0.00,357.00,VWS V14.01,2013-07-31 12:14:00,
2013-07-31 08:19:00,64.4,60.8,30.19,WNW,288,0.0,0.0,88,0.00,,---,0.00,371.00,VWS V14.01,2013-07-31 12:19:00,
2013-07-31 08:24:00,65.0,60.7,30.19,WNW,288,0.0,0.0,86,0.00,,---,0.00,387.00,VWS V14.01,2013-07-31 12:24:00,
2013-07-31 08:29:00,65.4,60.5,30.19,WNW,288,0.0,0.0,84,0.00,,---,0.00,394.00,VWS V14.01,2013-07-31 12:29:00,
2013-07-31 08:30:00,58.7,57.8,30.20,WNW,288,0.0,1.0,97,0.00,,---,0.00,230.00,VWS V14.01,2013-07-31 12:30:00,
2013-07-31 08:34:00,66.1,61.5,30.19,WNW,288,0.0,1.0,85,0.00,,---,0.00,418.00,VWS V14.01,2013-07-31 12:34:00,
2013-07-31 08:39:00,66.8,61.5,30.19,WNW,288,0.0,1.0,83,0.00,,---,0.00,431.00,VWS V14.01,2013-07-31 12:39:00,
2013-07-31 08:44:00,67.4,61.0,30.19,WNW,288,0.0,1.0,80,0.00,,---,0.00,446.00,VWS V14.01,2013-07-31 12:44:00,
2013-07-31 08:49:00,68.1,61.3,30.19,WNW,288,0.0,1.0,79,0.00,,---,0.00,485.00,VWS V14.01,2013-07-31 12:49:00,
2013-07-31 08:54:00,68.5,61.7,30.19,WNW,288,0.0,1.0,79,0.00,,---,0.00,482.00,VWS V14.01,2013-07-31 12:54:00,
2013-07-31 08:59:00,68.6,61.8,30.19,WNW,291,0.0,1.0,79,0.00,,---,0.00,480.00,VWS V14.01,2013-07-31 12:59:00,
2013-07-31 09:00:00,61.6,59.0,30.20,WNW,288,0.0,1.0,91,0.00,,---,0.00,311.00,VWS V14.01,2013-07-31 13:00:00,
2013-07-31 09:04:00,69.0,61.1,30.19,ENE,58,0.0,3.0,76,0.00,,---,0.00,476.00,VWS V14.01,2013-07-31 13:04:00,
2013-07-31 09:09:00,69.4,61.5,30.19,ENE,59,0.0,3.0,76,0.00,,---,0.00,462.00,VWS V14.01,2013-07-31 13:09:00,
2013-07-31 09:14:00,69.7,61.8,30.19,ENE,59,0.0,3.0,76,0.00,,---,0.00,424.00,VWS V14.01,2013-07-31 13:14:00,
2013-07-31 09:19:00,69.8,61.9,30.19,ENE,59,0.0,3.0,76,0.00,,---,0.00,510.00,VWS V14.01,2013-07-31 13:19:00,
2013-07-31 09:24:00,70.1,61.8,30.19,ENE,59,0.0,3.0,75,0.00,,---,0.00,559.00,VWS V14.01,2013-07-31 13:24:00,
2013-07-31 09:29:00,70.6,62.7,30.18,ENE,61,0.0,3.0,76,0.00,,---,0.00,584.00,VWS V14.01,2013-07-31 13:29:00,
2013-07-31 09:30:00,65.6,60.6,30.19,WNW,288,0.0,0.0,84,0.00,,---,0.00,410.00,VWS V14.01,2013-07-31 13:30:00,
2013-07-31 09:34:00,70.5,63.0,30.18,ENE,61,0.0,0.0,77,0.00,,---,0.00,594.00,VWS V14.01,2013-07-31 13:34:00,
2013-07-31 09:39:00,70.7,63.5,30.18,ENE,61,3.0,3.0,78,0.00,,---,0.00,529.00,VWS V14.01,2013-07-31 13:39:00,
2013-07-31 09:44:00,70.9,62.2,30.18,SE,129,0.0,4.0,74,0.00,,---,0.00,628.00,VWS V14.01,2013-07-31 13:44:00,
2013-07-31 09:49:00,71.3,63.7,30.18,ENE,73,0.0,4.0,77,0.00,,---,0.00,601.00,VWS V14.01,2013-07-31 13:49:00,
2013-07-31 09:54:00,71.7,62.6,30.18,ENE,74,0.0,4.0,73,0.00,,---,0.00,615.00,VWS V14.01,2013-07-31 13:54:00,
2013-07-31 09:59:00,72.4,62.9,30.18,ENE,74,0.0,4.0,72,0.00,,---,0.00,677.00,VWS V14.01,2013-07-31 13:59:00,
2013-07-31 10:00:00,68.7,61.6,30.19,WNW,291,0.0,1.0,78,0.00,,---,0.00,480.00,VWS V14.01,2013-07-31 14:00:00,
2013-07-31 10:04:00,73.0,63.5,30.17,ENE,74,0.0,0.0,72,0.00,,---,0.00,664.00,VWS V14.01,2013-07-31 14:04:00,
2013-07-31 10:09:00,73.3,63.3,30.17,ENE,74,0.0,2.0,71,0.00,,---,0.00,719.00,VWS V14.01,2013-07-31 14:09:00,
2013-07-31 10:14:00,73.6,62.8,30.17,ESE,105,0.0,4.0,69,0.00,,---,0.00,643.00,VWS V14.01,2013-07-31 14:14:00,
2013-07-31 10:19:00,73.8,62.6,30.17,ESE,105,0.0,4.0,68,0.00,,---,0.00,707.00,VWS V14.01,2013-07-31 14:19:00,
2013-07-31 10:24:00,73.5,61.9,30.17,ESE,106,1.0,4.0,67,0.00,,---,0.00,691.00,VWS V14.01,2013-07-31 14:24:00,
2013-07-31 10:29:00,73.6,62.8,30.17,ESE,106,0.0,4.0,69,0.00,,---,0.00,737.00,VWS V14.01,2013-07-31 14:29:00,
2013-07-31 10:30:00,70.7,62.8,30.18,ENE,61,0.0,3.0,76,0.00,,---,0.00,580.00,VWS V14.01,2013-07-31 14:30:00,
2013-07-31 10:34:00,73.5,62.3,30.17,West,269,3.0,4.0,68,0.00,,---,0.00,756.00,VWS V14.01,2013-07-31 14:34:00,
2013-07-31 10:39:00,73.1,61.9,30.17,West,279,3.0,4.0,68,0.00,,---,0.00,768.00,VWS V14.01,2013-07-31 14:39:00,
2013-07-31 10:44:00,72.7,62.8,30.17,West,279,0.0,4.0,71,0.00,,---,0.00,724.00,VWS V14.01,2013-07-31 14:44:00,
2013-07-31 10:49:00,73.2,62.0,30.17,West,279,0.0,4.0,68,0.00,,---,0.00,766.00,VWS V14.01,2013-07-31 14:49:00,
2013-07-31 10:54:00,73.8,62.6,30.17,ENE,64,0.0,4.0,68,0.00,,---,0.00,754.00,VWS V14.01,2013-07-31 14:54:00,
2013-07-31 10:59:00,74.2,62.1,30.17,ENE,64,0.0,4.0,66,0.00,,---,0.00,809.00,VWS V14.01,2013-07-31 14:59:00,
2013-07-31 11:00:00,72.5,63.0,30.17,ENE,74,0.0,4.0,72,0.00,,---,0.00,693.00,VWS V14.01,2013-07-31 15:00:00,
2013-07-31 11:04:00,74.0,62.4,30.17,ENE,64,0.0,0.0,67,0.00,,---,0.00,761.00,VWS V14.01,2013-07-31 15:04:00,
2013-07-31 11:09:00,74.0,62.8,30.17,NE,40,0.0,2.0,68,0.00,,---,0.00,807.00,VWS V14.01,2013-07-31 15:09:00,
2013-07-31 11:14:00,74.4,63.2,30.17,ENE,78,2.0,2.0,68,0.00,,---,0.00,789.00,VWS V14.01,2013-07-31 15:14:00,
2013-07-31 11:19:00,74.9,62.8,30.16,ENE,77,0.0,3.0,66,0.00,,---,0.00,759.00,VWS V14.01,2013-07-31 15:19:00,
2013-07-31 11:24:00,75.1,63.0,30.16,West,270,3.0,5.0,66,0.00,,---,0.00,810.00,VWS V14.01,2013-07-31 15:24:00,
2013-07-31 11:29:00,74.7,61.7,30.16,WNW,296,0.0,5.0,64,0.00,,---,0.00,367.00,VWS V14.01,2013-07-31 15:29:00,
2013-07-31 11:30:00,73.6,62.8,30.17,ESE,106,0.0,4.0,69,0.00,,---,0.00,731.00,VWS V14.01,2013-07-31 15:30:00,
2013-07-31 11:34:00,74.2,61.7,30.16,WNW,296,0.0,4.0,65,0.00,,---,0.00,279.00,VWS V14.01,2013-07-31 15:34:00,
2013-07-31 11:39:00,74.2,62.1,30.16,West,280,0.0,6.0,66,0.00,,---,0.00,737.00,VWS V14.01,2013-07-31 15:39:00,
2013-07-31 11:44:00,74.6,62.5,30.16,West,275,0.0,6.0,66,0.00,,---,0.00,724.00,VWS V14.01,2013-07-31 15:44:00,
2013-07-31 11:49:00,74.9,62.8,30.16,West,279,0.0,6.0,66,0.00,,---,0.00,766.00,VWS V14.01,2013-07-31 15:49:00,
2013-07-31 11:54:00,75.1,62.5,30.15,NW,304,0.0,6.0,65,0.00,,---,0.00,722.00,VWS V14.01,2013-07-31 15:54:00,
2013-07-31 11:59:00,75.2,62.6,30.16,WNW,286,1.0,6.0,65,0.00,,---,0.00,715.00,VWS V14.01,2013-07-31 15:59:00,
2013-07-31 12:00:00,74.2,61.7,30.17,ENE,64,0.0,4.0,65,0.00,,---,0.00,752.00,VWS V14.01,2013-07-31 16:00:00,
2013-07-31 12:04:00,75.3,61.8,30.16,WNW,288,3.0,5.0,63,0.00,,---,0.00,726.00,VWS V14.01,2013-07-31 16:04:00,
2013-07-31 12:09:00,75.5,62.5,30.15,West,270,0.0,5.0,64,0.00,,---,0.00,715.00,VWS V14.01,2013-07-31 16:09:00,
2013-07-31 12:14:00,75.4,61.9,30.15,West,273,0.0,5.0,63,0.00,,---,0.00,396.00,VWS V14.01,2013-07-31 16:14:00,
2013-07-31 12:19:00,75.4,62.4,30.15,WNW,286,3.0,7.0,64,0.00,,---,0.00,765.00,VWS V14.01,2013-07-31 16:19:00,
2013-07-31 12:24:00,75.5,61.1,30.15,West,281,0.0,7.0,61,0.00,,---,0.00,819.00,VWS V14.01,2013-07-31 16:24:00,
2013-07-31 12:29:00,75.6,61.7,30.15,WSW,257,0.0,7.0,62,0.00,,---,0.00,780.00,VWS V14.01,2013-07-31 16:29:00,
2013-07-31 12:30:00,74.6,62.1,30.16,WNW,296,0.0,5.0,65,0.00,,---,0.00,367.00,VWS V14.01,2013-07-31 16:30:00,
2013-07-31 12:34:00,75.5,61.1,30.15,WSW,257,0.0,0.0,61,0.00,,---,0.00,301.00,VWS V14.01,2013-07-31 16:34:00,
2013-07-31 12:39:00,75.4,63.3,30.15,WSW,257,0.0,0.0,66,0.00,,---,0.00,729.00,VWS V14.01,2013-07-31 16:39:00,
2013-07-31 12:44:00,75.8,61.9,30.15,WNW,288,0.0,5.0,62,0.00,,---,0.00,816.00,VWS V14.01,2013-07-31 16:44:00,
2013-07-31 12:49:00,76.5,63.0,30.14,ENE,61,0.0,5.0,63,0.00,,---,0.00,814.00,VWS V14.01,2013-07-31 16:49:00,
2013-07-31 12:54:00,76.7,61.3,30.14,WSW,257,2.0,5.0,59,0.00,,---,0.00,882.00,VWS V14.01,2013-07-31 16:54:00,
2013-07-31 12:59:00,76.6,62.2,30.14,ESE,117,0.0,5.0,61,0.00,,---,0.00,896.00,VWS V14.01,2013-07-31 16:59:00,
2013-07-31 13:00:00,75.2,62.2,30.16,WNW,293,5.0,6.0,64,0.00,,---,0.00,693.00,VWS V14.01,2013-07-31 17:00:00,
2013-07-31 13:04:00,77.3,61.4,30.14,West,269,2.0,4.0,58,0.00,,---,0.00,824.00,VWS V14.01,2013-07-31 17:04:00,
2013-07-31 13:09:00,77.7,61.8,30.14,West,277,0.0,5.0,58,0.00,,---,0.00,870.00,VWS V14.01,2013-07-31 17:09:00,
2013-07-31 13:14:00,77.9,62.4,30.14,West,277,0.0,5.0,59,0.00,,---,0.00,904.00,VWS V14.01,2013-07-31 17:14:00,
2013-07-31 13:19:00,78.1,61.1,30.13,SE,128,0.0,5.0,56,0.00,,---,0.00,986.00,VWS V14.01,2013-07-31 17:19:00,
2013-07-31 13:24:00,78.5,60.0,30.13,NW,314,0.0,5.0,53,0.00,,---,0.00,932.00,VWS V14.01,2013-07-31 17:24:00,
2013-07-31 13:29:00,78.5,59.4,30.13,East,95,0.0,6.0,52,0.00,,---,0.00,879.00,VWS V14.01,2013-07-31 17:29:00,
2013-07-31 13:30:00,75.6,62.6,30.15,WSW,257,0.0,7.0,64,0.00,,---,0.00,708.00,VWS V14.01,2013-07-31 17:30:00,
2013-07-31 13:34:00,78.3,59.8,30.13,WNW,294,5.0,6.0,53,0.00,,---,0.00,831.00,VWS V14.01,2013-07-31 17:34:00,
2013-07-31 13:39:00,78.3,60.8,30.13,ESE,118,2.0,6.0,55,0.00,,---,0.00,953.00,VWS V14.01,2013-07-31 17:39:00,
2013-07-31 13:44:00,78.5,58.3,30.13,NE,47,0.0,6.0,50,0.00,,---,0.00,916.00,VWS V14.01,2013-07-31 17:44:00,
2013-07-31 13:49:00,78.2,57.5,30.13,West,272,3.0,6.0,49,0.00,,---,0.00,195.00,VWS V14.01,2013-07-31 17:49:00,
2013-07-31 13:54:00,77.3,58.3,30.12,West,272,0.0,6.0,52,0.00,,---,0.00,216.00,VWS V14.01,2013-07-31 17:54:00,
2013-07-31 13:59:00,76.9,58.0,30.12,West,279,0.0,6.0,52,0.00,,---,0.00,445.00,VWS V14.01,2013-07-31 17:59:00,
2013-07-31 14:00:00,76.7,64.1,30.14,East,83,0.0,5.0,65,0.00,,---,0.00,904.00,VWS V14.01,2013-07-31 18:00:00,
2013-07-31 14:04:00,77.4,59.5,30.12,ENE,71,1.0,3.0,54,0.00,,---,0.00,861.00,VWS V14.01,2013-07-31 18:04:00,
2013-07-31 14:09:00,77.9,58.9,30.12,ENE,74,2.0,4.0,52,0.00,,---,0.00,884.00,VWS V14.01,2013-07-31 18:09:00,
2013-07-31 14:14:00,78.2,58.6,30.12,SE,127,5.0,5.0,51,0.00,,---,0.00,872.00,VWS V14.01,2013-07-31 18:14:00,
2013-07-31 14:19:00,78.8,59.2,30.12,NE,41,0.0,5.0,51,0.00,,---,0.00,765.00,VWS V14.01,2013-07-31 18:19:00,
2013-07-31 14:24:00,79.2,59.0,30.12,West,281,2.0,6.0,50,0.00,,---,0.00,752.00,VWS V14.01,2013-07-31 18:24:00,
2013-07-31 14:29:00,79.2,57.2,30.12,NW,325,0.0,6.0,47,0.00,,---,0.00,603.00,VWS V14.01,2013-07-31 18:29:00,
2013-07-31 14:30:00,78.5,61.0,30.13,East,95,0.0,6.0,55,0.00,,---,0.00,868.00,VWS V14.01,2013-07-31 18:30:00,
2013-07-31 14:34:00,78.9,58.7,30.12,NW,320,0.0,2.0,50,0.00,,---,0.00,496.00,VWS V14.01,2013-07-31 18:34:00,
2013-07-31 14:39:00,78.7,60.2,30.12,NW,320,0.0,2.0,53,0.00,,---,0.00,557.00,VWS V14.01,2013-07-31 18:39:00,
2013-07-31 14:44:00,78.7,60.2,30.12,NW,320,0.0,2.0,53,0.00,,---,0.00,617.00,VWS V14.01,2013-07-31 18:44:00,
2013-07-31 14:49:00,79.1,59.4,30.12,WNW,297,0.0,3.0,51,0.00,,---,0.00,763.00,VWS V14.01,2013-07-31 18:49:00,
2013-07-31 14:54:00,79.4,59.2,30.12,West,263,0.0,0.0,50,0.00,,---,0.00,761.00,VWS V14.01,2013-07-31 18:54:00,
2013-07-31 14:59:00,79.3,57.9,30.12,NNE,31,0.0,1.0,48,0.00,,---,0.00,786.00,VWS V14.01,2013-07-31 18:59:00,
2013-07-31 15:00:00,76.9,58.5,30.12,West,279,0.0,6.0,53,0.00,,---,0.00,861.00,VWS V14.01,2013-07-31 19:00:00,
2013-07-31 15:04:00,79.6,58.8,30.11,NW,312,1.0,2.0,49,0.00,,---,0.00,622.00,VWS V14.01,2013-07-31 19:04:00,
2013-07-31 15:09:00,79.9,57.9,30.11,West,271,1.0,4.0,47,0.00,,---,0.00,599.00,VWS V14.01,2013-07-31 19:09:00,
2013-07-31 15:14:00,79.6,58.2,30.11,WNW,286,0.0,5.0,48,0.00,,---,0.00,515.00,VWS V14.01,2013-07-31 19:14:00,
2013-07-31 15:19:00,79.2,58.4,30.11,WNW,286,0.0,5.0,49,0.00,,---,0.00,422.00,VWS V14.01,2013-07-31 19:19:00,
2013-07-31 15:24:00,78.8,57.5,30.11,WNW,286,0.0,5.0,48,0.00,,---,0.00,541.00,VWS V14.01,2013-07-31 19:24:00,
2013-07-31 15:29:00,78.7,60.2,30.11,WNW,286,0.0,5.0,53,0.00,,---,0.00,501.00,VWS V14.01,2013-07-31 19:29:00,
2013-07-31 15:30:00,79.2,57.2,30.12,NW,325,0.0,6.0,47,0.00,,---,0.00,536.00,VWS V14.01,2013-07-31 19:30:00,
2013-07-31 15:34:00,78.7,58.5,30.10,WNW,286,0.0,0.0,50,0.00,,---,0.00,724.00,VWS V14.01,2013-07-31 19:34:00,
2013-07-31 15:39:00,79.1,59.4,30.10,WNW,286,0.0,3.0,51,0.00,,---,0.00,777.00,VWS V14.01,2013-07-31 19:39:00,
2013-07-31 15:44:00,79.3,59.1,30.10,WNW,298,2.0,3.0,50,0.00,,---,0.00,795.00,VWS V14.01,2013-07-31 19:44:00,
2013-07-31 15:49:00,79.8,60.6,30.10,WNW,298,0.0,3.0,52,0.00,,---,0.00,671.00,VWS V14.01,2013-07-31 19:49:00,
2013-07-31 15:54:00,79.8,60.1,30.10,East,80,0.0,3.0,51,0.00,,---,0.00,636.00,VWS V14.01,2013-07-31 19:54:00,
2013-07-31 15:59:00,79.5,59.2,30.10,West,268,0.0,4.0,50,0.00,,---,0.00,555.00,VWS V14.01,2013-07-31 19:59:00,
2013-07-31 16:00:00,79.3,57.3,30.12,NW,312,2.0,3.0,47,0.00,,---,0.00,703.00,VWS V14.01,2013-07-31 20:00:00,
2013-07-31 16:04:00,79.6,59.3,30.09,West,273,0.0,0.0,50,0.00,,---,0.00,438.00,VWS V14.01,2013-07-31 20:04:00,
2013-07-31 16:09:00,79.5,59.2,30.09,West,273,0.0,1.0,50,0.00,,---,0.00,385.00,VWS V14.01,2013-07-31 20:09:00,
2013-07-31 16:14:00,79.2,57.8,30.09,West,273,0.0,3.0,48,0.00,,---,0.00,443.00,VWS V14.01,2013-07-31 20:14:00,
2013-07-31 16:19:00,78.9,60.9,30.09,West,273,0.0,3.0,54,0.00,,---,0.00,464.00,VWS V14.01,2013-07-31 20:19:00,
2013-07-31 16:24:00,78.7,59.1,30.09,West,273,0.0,3.0,51,0.00,,---,0.00,436.00,VWS V14.01,2013-07-31 20:24:00,
2013-07-31 16:29:00,78.9,60.3,30.09,West,273,0.0,3.0,53,0.00,,---,0.00,436.00,VWS V14.01,2013-07-31 20:29:00,
2013-07-31 16:30:00,78.7,60.7,30.11,WNW,286,0.0,5.0,54,0.00,,---,0.00,571.00,VWS V14.01,2013-07-31 20:30:00,
2013-07-31 16:34:00,79.1,60.0,30.09,West,273,0.0,0.0,52,0.00,,---,0.00,406.00,VWS V14.01,2013-07-31 20:34:00,
2013-07-31 16:39:00,79.4,61.8,30.09,West,273,0.0,0.0,55,0.00,,---,0.00,410.00,VWS V14.01,2013-07-31 20:39:00,
2013-07-31 16:44:00,79.4,61.8,30.09,West,273,0.0,0.0,55,0.00,,---,0.00,295.00,VWS V14.01,2013-07-31 20:44:00,
2013-07-31 16:49:00,79.2,62.2,30.08,West,273,0.0,0.0,56,0.00,,---,0.00,378.00,VWS V14.01,2013-07-31 20:49:00,
2013-07-31 16:54:00,78.8,60.2,30.08,West,273,0.0,0.0,53,0.00,,---,0.00,448.00,VWS V14.01,2013-07-31 20:54:00,
2013-07-31 16:59:00,78.9,61.4,30.08,West,273,0.0,0.0,55,0.00,,---,0.00,487.00,VWS V14.01,2013-07-31 20:59:00,
2013-07-31 17:00:00,79.4,60.3,30.10,West,273,0.0,4.0,52,0.00,,---,0.00,559.00,VWS V14.01,2013-07-31 21:00:00,
2013-07-31 17:04:00,79.1,61.6,30.08,West,273,0.0,3.0,55,0.00,,---,0.00,575.00,VWS V14.01,2013-07-31 21:04:00,
2013-07-31 17:09:00,79.2,59.5,30.08,West,273,0.0,3.0,51,0.00,,---,0.00,436.00,VWS V14.01,2013-07-31 21:09:00,
2013-07-31 17:14:00,78.9,59.2,30.08,West,273,0.0,3.0,51,0.00,,---,0.00,309.00,VWS V14.01,2013-07-31 21:14:00,
2013-07-31 17:19:00,78.7,61.2,30.08,West,273,0.0,3.0,55,0.00,,---,0.00,352.00,VWS V14.01,2013-07-31 21:19:00,
2013-07-31 17:24:00,78.7,61.7,30.08,West,273,0.0,3.0,56,0.00,,---,0.00,445.00,VWS V14.01,2013-07-31 21:24:00,
2013-07-31 17:29:00,78.8,60.8,30.08,West,273,0.0,3.0,54,0.00,,---,0.00,448.00,VWS V14.01,2013-07-31 21:29:00,
2013-07-31 17:30:00,79.0,59.3,30.09,West,273,0.0,3.0,51,0.00,,---,0.00,424.00,VWS V14.01,2013-07-31 21:30:00,
2013-07-31 17:34:00,78.7,60.2,30.08,West,273,0.0,0.0,53,0.00,,---,0.00,360.00,VWS V14.01,2013-07-31 21:34:00,
2013-07-31 17:39:00,78.6,60.1,30.08,West,273,0.0,0.0,53,0.00,,---,0.00,390.00,VWS V14.01,2013-07-31 21:39:00,
2013-07-31 17:44:00,78.8,60.8,30.08,West,273,0.0,0.0,54,0.00,,---,0.00,355.00,VWS V14.01,2013-07-31 21:44:00,
2013-07-31 17:49:00,79.0,61.5,30.08,West,273,0.0,1.0,55,0.00,,---,0.00,362.00,VWS V14.01,2013-07-31 21:49:00,
2013-07-31 17:54:00,78.9,61.4,30.08,West,273,0.0,1.0,55,0.00,,---,0.00,239.00,VWS V14.01,2013-07-31 21:54:00,
2013-07-31 17:59:00,78.6,60.1,30.08,West,273,0.0,1.0,53,0.00,,---,0.00,230.00,VWS V14.01,2013-07-31 21:59:00,
2013-07-31 18:00:00,78.9,60.9,30.08,West,273,0.0,0.0,54,0.00,,---,0.00,554.00,VWS V14.01,2013-07-31 22:00:00,
2013-07-31 18:03:00,78.2,60.7,30.08,West,273,0.0,1.0,55,0.00,,---,0.00,105.00,VWS V14.01,2013-07-31 22:03:00,
2013-07-31 18:08:00,77.8,61.4,30.08,West,273,0.0,3.0,57,0.00,,---,0.00,100.00,VWS V14.01,2013-07-31 22:08:00,
2013-07-31 18:13:00,77.5,60.6,30.08,West,273,0.0,3.0,56,0.00,,---,0.00,120.00,VWS V14.01,2013-07-31 22:13:00,
2013-07-31 18:18:00,77.2,61.3,30.08,West,273,0.0,3.0,58,0.00,,---,0.00,74.00,VWS V14.01,2013-07-31 22:18:00,
2013-07-31 18:23:00,76.9,61.0,30.08,West,273,0.0,3.0,58,0.00,,---,0.00,132.00,VWS V14.01,2013-07-31 22:23:00,
2013-07-31 18:28:00,76.7,61.3,30.08,West,273,0.0,3.0,59,0.00,,---,0.00,84.00,VWS V14.01,2013-07-31 22:28:00,
2013-07-31 18:30:00,78.8,61.8,30.08,West,273,0.0,3.0,56,0.00,,---,0.00,378.00,VWS V14.01,2013-07-31 22:30:00,
2013-07-31 18:33:00,76.5,60.6,30.08,West,273,0.0,0.0,58,0.00,,---,0.00,97.00,VWS V14.01,2013-07-31 22:33:00,
2013-07-31 18:38:00,76.3,60.9,30.07,West,273,0.0,0.0,59,0.00,,---,0.00,79.00,VWS V14.01,2013-07-31 22:38:00,
2013-07-31 18:43:00,76.0,61.6,30.08,West,273,0.0,0.0,61,0.00,,---,0.00,72.00,VWS V14.01,2013-07-31 22:43:00,
2013-07-31 18:48:00,75.8,61.4,30.07,West,273,0.0,0.0,61,0.00,,---,0.00,65.00,VWS V14.01,2013-07-31 22:48:00,
2013-07-31 18:53:00,75.7,61.3,30.07,West,273,0.0,1.0,61,0.00,,---,0.00,56.00,VWS V14.01,2013-07-31 22:53:00,
2013-07-31 18:58:00,75.4,61.5,30.07,West,273,0.0,1.0,62,0.00,,---,0.00,56.00,VWS V14.01,2013-07-31 22:58:00,
2013-07-31 19:00:00,78.4,59.9,30.08,West,273,0.0,1.0,53,0.00,,---,0.00,239.00,VWS V14.01,2013-07-31 23:00:00,
2013-07-31 19:03:00,75.2,60.8,30.07,West,273,0.0,0.0,61,0.00,,---,0.00,56.00,VWS V14.01,2013-07-31 23:03:00,
2013-07-31 19:08:00,74.9,63.2,30.07,West,273,0.0,0.0,67,0.00,,---,0.00,51.00,VWS V14.01,2013-07-31 23:08:00,
2013-07-31 19:13:00,74.4,63.2,30.07,West,273,0.0,0.0,68,0.00,,---,0.00,42.00,VWS V14.01,2013-07-31 23:13:00,
2013-07-31 19:18:00,74.0,62.4,30.07,West,273,0.0,0.0,67,0.00,,---,0.00,37.00,VWS V14.01,2013-07-31 23:18:00,
2013-07-31 19:23:00,73.6,61.5,30.07,West,273,0.0,0.0,66,0.00,,---,0.00,32.00,VWS V14.01,2013-07-31 23:23:00,
2013-07-31 19:28:00,73.3,61.7,30.07,West,273,0.0,0.0,67,0.00,,---,0.00,28.00,VWS V14.01,2013-07-31 23:28:00,
2013-07-31 19:30:00,76.6,60.7,30.08,West,273,0.0,3.0,58,0.00,,---,0.00,90.00,VWS V14.01,2013-07-31 23:30:00,
2013-07-31 19:33:00,72.9,62.5,30.07,West,273,0.0,0.0,70,0.00,,---,0.00,26.00,VWS V14.01,2013-07-31 23:33:00,
2013-07-31 19:38:00,72.4,62.9,30.07,West,273,0.0,0.0,72,0.00,,---,0.00,26.00,VWS V14.01,2013-07-31 23:38:00,
2013-07-31 19:43:00,71.9,62.0,30.07,West,273,0.0,0.0,71,0.00,,---,0.00,28.00,VWS V14.01,2013-07-31 23:43:00,
2013-07-31 19:48:00,71.4,61.9,30.07,West,273,0.0,0.0,72,0.00,,---,0.00,26.00,VWS V14.01,2013-07-31 23:48:00,
2013-07-31 19:53:00,71.0,61.9,30.07,West,273,0.0,0.0,73,0.00,,---,0.00,23.00,VWS V14.01,2013-07-31 23:53:00,
2013-07-31 19:58:00,70.7,62.4,30.07,West,273,0.0,0.0,75,0.00,,---,0.00,18.00,VWS V14.01,2013-07-31 23:58:00,
2013-07-31 20:00:00,75.4,61.0,30.07,West,273,0.0,1.0,61,0.00,,---,0.00,56.00,VWS V14.01,2013-08-01 00:00:00,
2013-07-31 20:03:00,70.4,62.1,30.06,West,273,0.0,0.0,75,0.00,,---,0.00,12.00,VWS V14.01,2013-08-01 00:03:00,
2013-07-31 20:08:00,70.2,61.9,30.06,West,273,0.0,0.0,75,0.00,,---,0.00,7.00,VWS V14.01,2013-08-01 00:08:00,
2013-07-31 20:13:00,69.9,62.0,30.06,West,273,0.0,0.0,76,0.00,,---,0.00,5.00,VWS V14.01,2013-08-01 00:13:00,
2013-07-31 20:18:00,69.5,61.6,30.06,West,273,0.0,0.0,76,0.00,,---,0.00,0.00,VWS V14.01,2013-08-01 00:18:00,
2013-07-31 20:23:00,69.0,61.5,30.06,West,273,0.0,0.0,77,0.00,,---,0.00,0.00,VWS V14.01,2013-08-01 00:23:00,
2013-07-31 20:28:00,68.6,61.8,30.06,West,273,0.0,0.0,79,0.00,,---,0.00,0.00,VWS V14.01,2013-08-01 00:28:00,
2013-07-31 20:30:00,73.1,61.9,30.07,West,273,0.0,0.0,68,0.00,,---,0.00,28.00,VWS V14.01,2013-08-01 00:30:00,
2013-07-31 20:33:00,68.4,62.0,30.06,West,273,0.0,0.0,80,0.00,,---,0.00,0.00,VWS V14.01,2013-08-01 00:33:00,
2013-07-31 20:38:00,68.0,62.0,30.06,West,273,0.0,0.0,81,0.00,,---,0.00,0.00,VWS V14.01,2013-08-01 00:38:00,
2013-07-31 20:43:00,67.6,61.9,30.06,West,273,0.0,0.0,82,0.00,,---,0.00,0.00,VWS V14.01,2013-08-01 00:43:00,
2013-07-31 20:48:00,67.3,61.6,30.07,West,273,0.0,0.0,82,0.00,,---,0.00,0.00,VWS V14.01,2013-08-01 00:48:00,
2013-07-31 20:53:00,66.9,61.6,30.06,West,273,0.0,0.0,83,0.00,,---,0.00,0.00,VWS V14.01,2013-08-01 00:53:00,
2013-07-31 20:58:00,66.5,61.2,30.07,West,273,0.0,0.0,83,0.00,,---,0.00,0.00,VWS V14.01,2013-08-01 00:58:00,
2013-07-31 21:00:00,70.6,62.3,30.07,West,273,0.0,0.0,75,0.00,,---,0.00,16.00,VWS V14.01,2013-08-01 01:00:00,
2013-07-31 21:03:00,66.2,61.2,30.07,West,273,0.0,0.0,84,0.00,,---,0.00,0.00,VWS V14.01,2013-08-01 01:03:00,
2013-07-31 21:08:00,65.9,61.3,30.07,West,273,0.0,0.0,85,0.00,,---,0.00,0.00,VWS V14.01,2013-08-01 01:08:00,
2013-07-31 21:13:00,65.5,61.2,30.07,West,273,0.0,0.0,86,0.00,,---,0.00,0.00,VWS V14.01,2013-08-01 01:13:00,
2013-07-31 21:18:00,65.2,61.2,30.07,West,273,0.0,0.0,87,0.00,,---,0.00,0.00,VWS V14.01,2013-08-01 01:18:00,
2013-07-31 21:23:00,65.0,61.0,30.07,West,273,0.0,0.0,87,0.00,,---,0.00,0.00,VWS V14.01,2013-08-01 01:23:00,
2013-07-31 21:28:00,64.7,61.1,30.07,West,273,0.0,0.0,88,0.00,,---,0.00,0.00,VWS V14.01,2013-08-01 01:28:00,
2013-07-31 21:30:00,68.6,61.8,30.06,West,273,0.0,0.0,79,0.00,,---,0.00,0.00,VWS V14.01,2013-08-01 01:30:00,
2013-07-31 21:33:00,64.4,60.8,30.07,West,273,0.0,0.0,88,0.00,,---,0.00,0.00,VWS V14.01,2013-08-01 01:33:00,
2013-07-31 21:38:00,64.2,60.6,30.07,West,273,0.0,0.0,88,0.00,,---,0.00,0.00,VWS V14.01,2013-08-01 01:38:00,
2013-07-31 21:43:00,64.0,60.7,30.07,West,273,0.0,0.0,89,0.00,,---,0.00,0.00,VWS V14.01,2013-08-01 01:43:00,
2013-07-31 21:48:00,63.8,60.8,30.07,West,273,0.0,0.0,90,0.00,,---,0.00,0.00,VWS V14.01,2013-08-01 01:48:00,
2013-07-31 21:53:00,63.6,60.9,30.07,West,273,0.0,0.0,91,0.00,,---,0.00,0.00,VWS V14.01,2013-08-01 01:53:00,
2013-07-31 21:58:00,63.6,60.9,30.07,West,273,0.0,0.0,91,0.00,,---,0.00,0.00,VWS V14.01,2013-08-01 01:58:00,
2013-07-31 22:00:00,66.5,61.5,30.07,West,273,0.0,0.0,84,0.00,,---,0.00,0.00,VWS V14.01,2013-08-01 02:00:00,
2013-07-31 22:03:00,63.5,60.8,30.07,West,273,0.0,0.0,91,0.00,,---,0.00,0.00,VWS V14.01,2013-08-01 02:03:00,
2013-07-31 22:08:00,63.5,60.8,30.07,West,273,0.0,0.0,91,0.00,,---,0.00,0.00,VWS V14.01,2013-08-01 02:08:00,
2013-07-31 22:13:00,63.4,60.7,30.07,West,273,0.0,0.0,91,0.00,,---,0.00,0.00,VWS V14.01,2013-08-01 02:13:00,
2013-07-31 22:18:00,63.4,60.7,30.07,West,273,0.0,0.0,91,0.00,,---,0.00,0.00,VWS V14.01,2013-08-01 02:18:00,
2013-07-31 22:23:00,63.3,60.6,30.07,West,273,0.0,0.0,91,0.00,,---,0.00,0.00,VWS V14.01,2013-08-01 02:23:00,
2013-07-31 22:28:00,63.2,60.5,30.07,West,273,0.0,0.0,91,0.00,,---,0.00,0.00,VWS V14.01,2013-08-01 02:28:00,
2013-07-31 22:30:00,64.6,61.0,30.07,West,273,0.0,0.0,88,0.00,,---,0.00,0.00,VWS V14.01,2013-08-01 02:30:00,
2013-07-31 22:33:00,63.3,60.6,30.07,West,273,0.0,0.0,91,0.00,,---,0.00,0.00,VWS V14.01,2013-08-01 02:33:00,
2013-07-31 22:38:00,63.2,60.5,30.07,West,273,0.0,0.0,91,0.00,,---,0.00,0.00,VWS V14.01,2013-08-01 02:38:00,
2013-07-31 22:43:00,63.1,60.4,30.07,West,273,0.0,0.0,91,0.00,,---,0.00,0.00,VWS V14.01,2013-08-01 02:43:00,
2013-07-31 22:48:00,62.9,60.2,30.07,West,273,0.0,0.0,91,0.00,,---,0.00,0.00,VWS V14.01,2013-08-01 02:48:00,
2013-07-31 22:53:00,62.7,60.0,30.07,West,273,0.0,0.0,91,0.00,,---,0.00,0.00,VWS V14.01,2013-08-01 02:53:00,
2013-07-31 22:58:00,62.5,59.8,30.07,West,273,0.0,0.0,91,0.00,,---,0.00,0.00,VWS V14.01,2013-08-01 02:58:00,
2013-07-31 23:00:00,63.6,60.9,30.07,West,273,0.0,0.0,91,0.00,,---,0.00,0.00,VWS V14.01,2013-08-01 03:00:00,
2013-07-31 23:03:00,62.4,60.0,30.07,West,273,0.0,0.0,92,0.00,,---,0.00,0.00,VWS V14.01,2013-08-01 03:03:00,
2013-07-31 23:08:00,62.3,60.0,30.07,West,273,0.0,0.0,92,0.00,,---,0.00,0.00,VWS V14.01,2013-08-01 03:08:00,
2013-07-31 23:13:00,62.1,59.8,30.07,West,273,0.0,0.0,92,0.00,,---,0.00,0.00,VWS V14.01,2013-08-01 03:13:00,
2013-07-31 23:18:00,61.9,59.5,30.07,West,273,0.0,0.0,92,0.00,,---,0.00,0.00,VWS V14.01,2013-08-01 03:18:00,
2013-07-31 23:23:00,61.7,59.7,30.07,West,273,0.0,0.0,93,0.00,,---,0.00,0.00,VWS V14.01,2013-08-01 03:23:00,
2013-07-31 23:28:00,61.6,59.6,30.07,West,273,0.0,0.0,93,0.00,,---,0.00,0.00,VWS V14.01,2013-08-01 03:28:00,
2013-07-31 23:30:00,63.3,60.6,30.07,West,273,0.0,0.0,91,0.00,,---,0.00,0.00,VWS V14.01,2013-08-01 03:30:00,
2013-07-31 23:33:00,61.6,59.6,30.07,West,273,0.0,0.0,93,0.00,,---,0.00,0.00,VWS V14.01,2013-08-01 03:33:00,
2013-07-31 23:38:00,61.6,59.6,30.07,West,273,0.0,0.0,93,0.00,,---,0.00,0.00,VWS V14.01,2013-08-01 03:38:00,
2013-07-31 23:43:00,61.6,59.9,30.07,West,273,0.0,0.0,94,0.00,,---,0.00,0.00,VWS V14.01,2013-08-01 03:43:00,
2013-07-31 23:48:00,61.6,59.9,30.07,West,273,0.0,0.0,94,0.00,,---,0.00,0.00,VWS V14.01,2013-08-01 03:48:00,
2013-07-31 23:53:00,61.6,59.9,30.07,West,273,0.0,0.0,94,0.00,,---,0.00,0.00,VWS V14.01,2013-08-01 03:53:00,
2013-07-31 23:58:00,61.7,60.0,30.07,West,273,0.0,0.0,94,0.00,,---,0.00,0.00,VWS V14.01,2013-08-01 03:58:00,